Sabahat Telli — TCSQ6 — position and weather

sailwx.info

Track history (hours):
 
Tides and Currents Weather Stations Pressure Air Temp Water Temp Dewpoint Dewpoint Depression Visibility Wind Speed Wind Dir Waves Ship Positions

Sabahat Telli

Last reported at 2017-May-21 01:49 UTC. Time now 2017-May-27 23:01 UTC.
Position N 45°22' E 036°40'.

Length 99 m; draft 4.8 m.

Type: Tanker. MMSI: 271000961.

Date/timePositionNaut miles runAvg speedWind from/ knotsBaromVisibWave heightAir tempDewpointWater temp
2017-May-21 01:49N 45°22' E 036°40'410.7
2017-May-21 01:24N 45°20' E 036°35'  
2017-May-15 10:23N 40°44' E 029°26'3 8.1
2017-May-15 09:58N 40°44' E 029°21'2 3.9
2017-May-15 09:30N 40°45' E 029°19'612.5
2017-May-15 09:00N 40°47' E 029°11'813.5
2017-May-15 08:26N 40°49' E 029°02'612.2
2017-May-15 07:59N 40°53' E 028°56'612.8
2017-May-15 07:30N 40°59' E 028°59'  
Track history (hours):
 
Tides and Currents Weather Stations Pressure Air Temp Water Temp Dewpoint Dewpoint Depression Visibility Wind Speed Wind Dir Waves Ship Positions

Sabahat Telli

Last reported at 2017-May-21 01:49 UTC. Time now 2017-May-27 23:01 UTC.
Position N 45°22' E 036°40'.

Length 99 m; draft 4.8 m.

Type: Tanker. MMSI: 271000961.

Date/timePositionNaut miles runAvg speedWind from/ knotsBaromVisibWave heightAir tempDewpointWater temp
2017-May-21 01:49N 45°22' E 036°40'410.7
2017-May-21 01:24N 45°20' E 036°35'  
2017-May-15 10:23N 40°44' E 029°26'3 8.1
2017-May-15 09:58N 40°44' E 029°21'2 3.9
2017-May-15 09:30N 40°45' E 029°19'612.5
2017-May-15 09:00N 40°47' E 029°11'813.5
2017-May-15 08:26N 40°49' E 029°02'612.2
2017-May-15 07:59N 40°53' E 028°56'612.8
2017-May-15 07:30N 40°59' E 028°59'  

Dump ship's entire track history